sensor_id;sensor_type;location;lat;lon;timestamp;P1;durP1;ratioP1;P2;durP2;ratioP2
26211;SDS011;13951;49.516;6.094;2024-01-06T00:02:22;4.37;;;2.17;;
26211;SDS011;13951;49.516;6.094;2024-01-06T00:04:55;6.87;;;2.17;;
26211;SDS011;13951;49.516;6.094;2024-01-06T00:07:28;5.33;;;2.13;;
26211;SDS011;13951;49.516;6.094;2024-01-06T00:10:01;2.63;;;1.77;;
26211;SDS011;13951;49.516;6.094;2024-01-06T00:12:34;5.83;;;2.30;;
26211;SDS011;13951;49.516;6.094;2024-01-06T00:15:08;4.03;;;1.93;;
26211;SDS011;13951;49.516;6.094;2024-01-06T00:17:41;4.00;;;2.37;;
26211;SDS011;13951;49.516;6.094;2024-01-06T00:20:14;3.50;;;1.97;;
26211;SDS011;13951;49.516;6.094;2024-01-06T00:22:47;5.97;;;2.13;;
26211;SDS011;13951;49.516;6.094;2024-01-06T00:25:20;3.20;;;2.17;;
26211;SDS011;13951;49.516;6.094;2024-01-06T00:27:53;3.57;;;2.00;;
26211;SDS011;13951;49.516;6.094;2024-01-06T00:30:27;3.97;;;2.03;;
26211;SDS011;13951;49.516;6.094;2024-01-06T00:33:00;3.87;;;2.20;;
26211;SDS011;13951;49.516;6.094;2024-01-06T00:35:34;2.30;;;2.07;;
26211;SDS011;13951;49.516;6.094;2024-01-06T00:38:07;3.40;;;2.43;;
26211;SDS011;13951;49.516;6.094;2024-01-06T00:40:40;3.50;;;2.33;;
26211;SDS011;13951;49.516;6.094;2024-01-06T00:43:13;3.80;;;2.80;;
26211;SDS011;13951;49.516;6.094;2024-01-06T00:45:46;4.70;;;2.30;;
26211;SDS011;13951;49.516;6.094;2024-01-06T00:48:19;3.27;;;2.20;;
26211;SDS011;13951;49.516;6.094;2024-01-06T00:50:53;5.10;;;2.40;;
26211;SDS011;13951;49.516;6.094;2024-01-06T00:53:26;6.13;;;2.40;;
26211;SDS011;13951;49.516;6.094;2024-01-06T00:55:59;3.63;;;2.50;;
26211;SDS011;13951;49.516;6.094;2024-01-06T00:58:32;4.50;;;2.50;;
26211;SDS011;13951;49.516;6.094;2024-01-06T01:01:05;4.50;;;2.73;;
26211;SDS011;13951;49.516;6.094;2024-01-06T01:03:39;4.83;;;2.50;;
26211;SDS011;13951;49.516;6.094;2024-01-06T01:06:12;5.20;;;2.67;;
26211;SDS011;13951;49.516;6.094;2024-01-06T01:08:45;3.60;;;2.57;;
26211;SDS011;13951;49.516;6.094;2024-01-06T01:11:18;7.17;;;2.40;;
26211;SDS011;13951;49.516;6.094;2024-01-06T01:13:52;6.07;;;2.87;;
26211;SDS011;13951;49.516;6.094;2024-01-06T01:16:25;4.83;;;2.50;;
26211;SDS011;13951;49.516;6.094;2024-01-06T01:18:58;7.03;;;2.60;;
26211;SDS011;13951;49.516;6.094;2024-01-06T01:21:32;3.60;;;2.50;;
26211;SDS011;13951;49.516;6.094;2024-01-06T01:24:05;5.60;;;2.87;;
26211;SDS011;13951;49.516;6.094;2024-01-06T01:26:38;5.80;;;2.80;;
26211;SDS011;13951;49.516;6.094;2024-01-06T01:29:11;4.37;;;2.90;;
26211;SDS011;13951;49.516;6.094;2024-01-06T01:31:46;6.10;;;2.80;;
26211;SDS011;13951;49.516;6.094;2024-01-06T01:34:20;6.33;;;2.90;;
26211;SDS011;13951;49.516;6.094;2024-01-06T01:36:53;6.33;;;2.67;;
26211;SDS011;13951;49.516;6.094;2024-01-06T01:39:26;5.23;;;3.03;;
26211;SDS011;13951;49.516;6.094;2024-01-06T01:41:59;5.47;;;2.77;;
26211;SDS011;13951;49.516;6.094;2024-01-06T01:44:32;4.03;;;3.07;;
26211;SDS011;13951;49.516;6.094;2024-01-06T01:47:06;5.37;;;2.90;;
26211;SDS011;13951;49.516;6.094;2024-01-06T01:49:39;7.57;;;3.10;;
26211;SDS011;13951;49.516;6.094;2024-01-06T01:52:13;6.97;;;3.10;;
26211;SDS011;13951;49.516;6.094;2024-01-06T01:54:47;5.23;;;3.00;;
26211;SDS011;13951;49.516;6.094;2024-01-06T01:57:21;6.73;;;3.10;;
26211;SDS011;13951;49.516;6.094;2024-01-06T01:59:56;3.50;;;2.50;;
26211;SDS011;13951;49.516;6.094;2024-01-06T02:02:29;4.37;;;3.07;;
26211;SDS011;13951;49.516;6.094;2024-01-06T02:05:04;5.73;;;3.17;;
26211;SDS011;13951;49.516;6.094;2024-01-06T02:07:37;6.63;;;3.00;;
26211;SDS011;13951;49.516;6.094;2024-01-06T02:10:10;6.47;;;3.30;;
26211;SDS011;13951;49.516;6.094;2024-01-06T02:12:43;8.20;;;3.63;;
26211;SDS011;13951;49.516;6.094;2024-01-06T02:15:17;4.97;;;3.37;;
26211;SDS011;13951;49.516;6.094;2024-01-06T02:17:51;5.17;;;3.20;;
26211;SDS011;13951;49.516;6.094;2024-01-06T02:20:24;8.07;;;3.73;;
26211;SDS011;13951;49.516;6.094;2024-01-06T02:22:59;6.03;;;3.67;;
26211;SDS011;13951;49.516;6.094;2024-01-06T02:25:33;7.47;;;3.50;;
26211;SDS011;13951;49.516;6.094;2024-01-06T02:28:07;6.10;;;3.13;;
26211;SDS011;13951;49.516;6.094;2024-01-06T02:30:41;6.67;;;3.60;;
26211;SDS011;13951;49.516;6.094;2024-01-06T02:33:14;4.87;;;3.00;;
26211;SDS011;13951;49.516;6.094;2024-01-06T02:35:47;4.87;;;3.10;;
26211;SDS011;13951;49.516;6.094;2024-01-06T02:38:20;5.67;;;3.30;;
26211;SDS011;13951;49.516;6.094;2024-01-06T02:40:53;5.60;;;3.53;;
26211;SDS011;13951;49.516;6.094;2024-01-06T02:43:27;10.27;;;3.87;;
26211;SDS011;13951;49.516;6.094;2024-01-06T02:46:00;8.67;;;3.30;;
26211;SDS011;13951;49.516;6.094;2024-01-06T02:48:33;6.67;;;3.60;;
26211;SDS011;13951;49.516;6.094;2024-01-06T02:51:06;5.33;;;3.53;;
26211;SDS011;13951;49.516;6.094;2024-01-06T02:53:39;4.73;;;3.23;;
26211;SDS011;13951;49.516;6.094;2024-01-06T02:56:12;6.83;;;3.30;;
26211;SDS011;13951;49.516;6.094;2024-01-06T02:58:45;5.33;;;3.63;;
26211;SDS011;13951;49.516;6.094;2024-01-06T03:01:18;7.70;;;3.53;;
26211;SDS011;13951;49.516;6.094;2024-01-06T03:03:52;5.50;;;3.70;;
26211;SDS011;13951;49.516;6.094;2024-01-06T03:06:25;5.40;;;3.20;;
26211;SDS011;13951;49.516;6.094;2024-01-06T03:08:58;5.30;;;3.47;;
26211;SDS011;13951;49.516;6.094;2024-01-06T03:11:31;5.13;;;3.13;;
26211;SDS011;13951;49.516;6.094;2024-01-06T03:14:05;3.63;;;2.93;;
26211;SDS011;13951;49.516;6.094;2024-01-06T03:16:38;3.73;;;2.87;;
26211;SDS011;13951;49.516;6.094;2024-01-06T03:19:11;5.23;;;3.07;;
26211;SDS011;13951;49.516;6.094;2024-01-06T03:21:45;5.07;;;2.87;;
26211;SDS011;13951;49.516;6.094;2024-01-06T03:24:18;3.63;;;2.80;;
26211;SDS011;13951;49.516;6.094;2024-01-06T03:26:51;4.37;;;3.03;;
26211;SDS011;13951;49.516;6.094;2024-01-06T03:29:25;4.30;;;2.63;;
26211;SDS011;13951;49.516;6.094;2024-01-06T03:31:58;4.57;;;2.70;;
26211;SDS011;13951;49.516;6.094;2024-01-06T03:34:31;4.80;;;3.33;;
26211;SDS011;13951;49.516;6.094;2024-01-06T03:37:04;3.67;;;2.40;;
26211;SDS011;13951;49.516;6.094;2024-01-06T03:39:38;4.17;;;3.00;;
26211;SDS011;13951;49.516;6.094;2024-01-06T03:42:11;4.50;;;2.93;;
26211;SDS011;13951;49.516;6.094;2024-01-06T03:44:44;5.17;;;3.10;;
26211;SDS011;13951;49.516;6.094;2024-01-06T03:47:17;5.70;;;3.13;;
26211;SDS011;13951;49.516;6.094;2024-01-06T03:49:51;6.70;;;3.20;;
26211;SDS011;13951;49.516;6.094;2024-01-06T03:52:24;5.13;;;3.07;;
26211;SDS011;13951;49.516;6.094;2024-01-06T03:54:58;5.20;;;3.20;;
26211;SDS011;13951;49.516;6.094;2024-01-06T03:57:31;4.43;;;2.90;;
26211;SDS011;13951;49.516;6.094;2024-01-06T04:00:04;4.00;;;2.67;;
26211;SDS011;13951;49.516;6.094;2024-01-06T04:02:39;3.63;;;2.60;;
26211;SDS011;13951;49.516;6.094;2024-01-06T04:05:13;4.33;;;2.87;;
26211;SDS011;13951;49.516;6.094;2024-01-06T04:07:46;3.97;;;2.40;;
26211;SDS011;13951;49.516;6.094;2024-01-06T04:10:19;4.03;;;2.90;;
26211;SDS011;13951;49.516;6.094;2024-01-06T04:12:52;3.07;;;2.50;;
26211;SDS011;13951;49.516;6.094;2024-01-06T04:15:25;3.13;;;2.40;;
26211;SDS011;13951;49.516;6.094;2024-01-06T04:18:01;3.93;;;2.40;;
26211;SDS011;13951;49.516;6.094;2024-01-06T04:20:35;3.93;;;2.20;;
26211;SDS011;13951;49.516;6.094;2024-01-06T04:23:09;4.03;;;3.00;;
26211;SDS011;13951;49.516;6.094;2024-01-06T04:25:42;5.60;;;2.53;;
26211;SDS011;13951;49.516;6.094;2024-01-06T04:28:15;4.40;;;3.00;;
26211;SDS011;13951;49.516;6.094;2024-01-06T04:30:48;2.90;;;2.60;;
26211;SDS011;13951;49.516;6.094;2024-01-06T04:33:22;3.83;;;2.90;;
26211;SDS011;13951;49.516;6.094;2024-01-06T04:35:55;4.60;;;2.90;;
26211;SDS011;13951;49.516;6.094;2024-01-06T04:38:28;3.80;;;2.60;;
26211;SDS011;13951;49.516;6.094;2024-01-06T04:41:04;3.00;;;2.60;;
26211;SDS011;13951;49.516;6.094;2024-01-06T04:43:37;5.67;;;2.80;;
26211;SDS011;13951;49.516;6.094;2024-01-06T04:46:10;4.77;;;3.03;;
26211;SDS011;13951;49.516;6.094;2024-01-06T04:48:44;4.67;;;3.40;;
26211;SDS011;13951;49.516;6.094;2024-01-06T04:51:17;5.23;;;3.10;;
26211;SDS011;13951;49.516;6.094;2024-01-06T04:53:50;4.97;;;3.50;;
26211;SDS011;13951;49.516;6.094;2024-01-06T04:56:23;5.57;;;3.20;;
26211;SDS011;13951;49.516;6.094;2024-01-06T04:58:56;4.13;;;3.07;;
26211;SDS011;13951;49.516;6.094;2024-01-06T05:01:30;3.87;;;3.47;;
26211;SDS011;13951;49.516;6.094;2024-01-06T05:04:05;5.07;;;3.50;;
26211;SDS011;13951;49.516;6.094;2024-01-06T05:06:39;5.73;;;3.67;;
26211;SDS011;13951;49.516;6.094;2024-01-06T05:09:13;5.30;;;4.00;;
26211;SDS011;13951;49.516;6.094;2024-01-06T05:11:46;7.63;;;4.10;;
26211;SDS011;13951;49.516;6.094;2024-01-06T05:14:19;6.63;;;3.93;;
26211;SDS011;13951;49.516;6.094;2024-01-06T05:16:52;4.70;;;4.20;;
26211;SDS011;13951;49.516;6.094;2024-01-06T05:19:25;6.90;;;4.50;;
26211;SDS011;13951;49.516;6.094;2024-01-06T05:21:59;4.70;;;3.90;;
26211;SDS011;13951;49.516;6.094;2024-01-06T05:24:32;4.20;;;3.40;;
26211;SDS011;13951;49.516;6.094;2024-01-06T05:27:05;5.17;;;3.90;;
26211;SDS011;13951;49.516;6.094;2024-01-06T05:29:42;5.93;;;3.97;;
26211;SDS011;13951;49.516;6.094;2024-01-06T05:32:16;4.17;;;3.17;;
26211;SDS011;13951;49.516;6.094;2024-01-06T05:34:50;6.47;;;3.27;;
26211;SDS011;13951;49.516;6.094;2024-01-06T05:37:23;3.97;;;3.50;;
26211;SDS011;13951;49.516;6.094;2024-01-06T05:39:56;5.20;;;3.93;;
26211;SDS011;13951;49.516;6.094;2024-01-06T05:42:34;4.93;;;3.50;;
26211;SDS011;13951;49.516;6.094;2024-01-06T05:45:10;3.93;;;3.50;;
26211;SDS011;13951;49.516;6.094;2024-01-06T05:47:45;4.13;;;3.60;;
26211;SDS011;13951;49.516;6.094;2024-01-06T05:50:18;4.93;;;3.33;;
26211;SDS011;13951;49.516;6.094;2024-01-06T05:52:52;4.40;;;3.57;;
26211;SDS011;13951;49.516;6.094;2024-01-06T05:55:25;5.00;;;3.20;;
26211;SDS011;13951;49.516;6.094;2024-01-06T05:57:58;3.80;;;3.37;;
26211;SDS011;13951;49.516;6.094;2024-01-06T06:00:31;3.30;;;3.00;;
26211;SDS011;13951;49.516;6.094;2024-01-06T06:03:05;5.53;;;3.43;;
26211;SDS011;13951;49.516;6.094;2024-01-06T06:05:38;3.57;;;3.27;;
26211;SDS011;13951;49.516;6.094;2024-01-06T06:08:11;4.13;;;3.20;;
26211;SDS011;13951;49.516;6.094;2024-01-06T06:10:44;3.93;;;3.20;;
26211;SDS011;13951;49.516;6.094;2024-01-06T06:13:43;4.33;;;3.37;;
26211;SDS011;13951;49.516;6.094;2024-01-06T06:16:16;3.73;;;3.43;;
26211;SDS011;13951;49.516;6.094;2024-01-06T06:18:49;3.77;;;3.10;;
26211;SDS011;13951;49.516;6.094;2024-01-06T06:21:22;3.90;;;3.47;;
26211;SDS011;13951;49.516;6.094;2024-01-06T06:23:55;3.47;;;3.10;;
26211;SDS011;13951;49.516;6.094;2024-01-06T06:26:28;3.23;;;2.93;;
26211;SDS011;13951;49.516;6.094;2024-01-06T06:29:02;5.07;;;3.13;;
26211;SDS011;13951;49.516;6.094;2024-01-06T06:31:36;4.23;;;3.37;;
26211;SDS011;13951;49.516;6.094;2024-01-06T06:34:09;4.20;;;3.30;;
26211;SDS011;13951;49.516;6.094;2024-01-06T06:36:42;4.73;;;3.37;;
26211;SDS011;13951;49.516;6.094;2024-01-06T06:39:16;4.47;;;3.10;;
26211;SDS011;13951;49.516;6.094;2024-01-06T06:41:50;4.20;;;3.23;;
26211;SDS011;13951;49.516;6.094;2024-01-06T06:44:24;3.10;;;2.70;;
26211;SDS011;13951;49.516;6.094;2024-01-06T06:46:57;3.33;;;2.70;;
26211;SDS011;13951;49.516;6.094;2024-01-06T06:49:30;3.90;;;2.80;;
26211;SDS011;13951;49.516;6.094;2024-01-06T06:52:03;3.67;;;2.70;;
26211;SDS011;13951;49.516;6.094;2024-01-06T06:54:39;3.57;;;2.50;;
26211;SDS011;13951;49.516;6.094;2024-01-06T06:57:12;3.63;;;3.13;;
26211;SDS011;13951;49.516;6.094;2024-01-06T06:59:45;3.53;;;3.20;;
26211;SDS011;13951;49.516;6.094;2024-01-06T07:02:18;3.87;;;3.03;;
26211;SDS011;13951;49.516;6.094;2024-01-06T07:04:51;4.10;;;3.20;;
26211;SDS011;13951;49.516;6.094;2024-01-06T07:07:24;3.30;;;2.83;;
26211;SDS011;13951;49.516;6.094;2024-01-06T07:09:57;4.03;;;3.00;;
26211;SDS011;13951;49.516;6.094;2024-01-06T07:12:31;3.63;;;2.80;;
26211;SDS011;13951;49.516;6.094;2024-01-06T07:15:05;3.73;;;2.70;;
26211;SDS011;13951;49.516;6.094;2024-01-06T07:17:39;4.53;;;2.73;;
26211;SDS011;13951;49.516;6.094;2024-01-06T07:20:12;3.80;;;2.83;;
26211;SDS011;13951;49.516;6.094;2024-01-06T07:22:46;3.10;;;2.50;;
26211;SDS011;13951;49.516;6.094;2024-01-06T07:25:19;4.33;;;3.00;;
26211;SDS011;13951;49.516;6.094;2024-01-06T07:27:52;3.00;;;2.47;;
26211;SDS011;13951;49.516;6.094;2024-01-06T07:30:27;3.10;;;2.80;;
26211;SDS011;13951;49.516;6.094;2024-01-06T07:33:00;4.00;;;2.60;;
26211;SDS011;13951;49.516;6.094;2024-01-06T07:35:33;4.37;;;2.70;;
26211;SDS011;13951;49.516;6.094;2024-01-06T07:38:06;4.07;;;3.17;;
26211;SDS011;13951;49.516;6.094;2024-01-06T07:40:39;5.57;;;3.10;;
26211;SDS011;13951;49.516;6.094;2024-01-06T07:43:14;4.80;;;3.33;;
26211;SDS011;13951;49.516;6.094;2024-01-06T07:45:48;4.43;;;3.47;;
26211;SDS011;13951;49.516;6.094;2024-01-06T07:48:22;3.30;;;3.00;;
26211;SDS011;13951;49.516;6.094;2024-01-06T07:50:55;4.80;;;3.30;;
26211;SDS011;13951;49.516;6.094;2024-01-06T07:53:28;3.77;;;3.00;;
26211;SDS011;13951;49.516;6.094;2024-01-06T07:56:01;3.87;;;3.30;;
26211;SDS011;13951;49.516;6.094;2024-01-06T07:58:35;3.93;;;2.57;;
26211;SDS011;13951;49.516;6.094;2024-01-06T08:01:08;4.77;;;2.90;;
26211;SDS011;13951;49.516;6.094;2024-01-06T08:03:41;3.30;;;2.60;;
26211;SDS011;13951;49.516;6.094;2024-01-06T08:06:16;4.10;;;3.37;;
26211;SDS011;13951;49.516;6.094;2024-01-06T08:08:49;4.37;;;3.17;;
26211;SDS011;13951;49.516;6.094;2024-01-06T08:11:22;3.77;;;3.23;;
26211;SDS011;13951;49.516;6.094;2024-01-06T08:13:55;6.30;;;3.20;;
26211;SDS011;13951;49.516;6.094;2024-01-06T08:16:28;3.63;;;2.90;;
26211;SDS011;13951;49.516;6.094;2024-01-06T08:19:01;5.03;;;2.67;;
26211;SDS011;13951;49.516;6.094;2024-01-06T08:21:35;4.10;;;2.73;;
26211;SDS011;13951;49.516;6.094;2024-01-06T08:24:08;5.00;;;3.00;;
26211;SDS011;13951;49.516;6.094;2024-01-06T08:26:41;2.97;;;2.67;;
26211;SDS011;13951;49.516;6.094;2024-01-06T08:29:14;5.67;;;2.80;;
26211;SDS011;13951;49.516;6.094;2024-01-06T08:31:49;3.73;;;2.90;;
26211;SDS011;13951;49.516;6.094;2024-01-06T08:34:25;4.63;;;3.00;;
26211;SDS011;13951;49.516;6.094;2024-01-06T08:37:02;4.90;;;2.80;;
26211;SDS011;13951;49.516;6.094;2024-01-06T08:39:36;3.10;;;2.80;;
26211;SDS011;13951;49.516;6.094;2024-01-06T08:42:09;6.27;;;3.33;;
26211;SDS011;13951;49.516;6.094;2024-01-06T08:44:42;3.97;;;2.80;;
26211;SDS011;13951;49.516;6.094;2024-01-06T08:47:16;3.40;;;2.50;;
26211;SDS011;13951;49.516;6.094;2024-01-06T08:49:49;3.30;;;2.57;;
26211;SDS011;13951;49.516;6.094;2024-01-06T08:52:22;3.97;;;2.50;;
26211;SDS011;13951;49.516;6.094;2024-01-06T08:54:55;3.67;;;2.70;;
26211;SDS011;13951;49.516;6.094;2024-01-06T08:57:28;4.30;;;2.50;;
26211;SDS011;13951;49.516;6.094;2024-01-06T09:00:01;3.57;;;2.70;;
26211;SDS011;13951;49.516;6.094;2024-01-06T09:02:40;3.73;;;2.30;;
26211;SDS011;13951;49.516;6.094;2024-01-06T09:05:13;3.83;;;2.53;;
26211;SDS011;13951;49.516;6.094;2024-01-06T09:07:47;3.27;;;2.60;;
26211;SDS011;13951;49.516;6.094;2024-01-06T09:10:27;3.20;;;2.50;;
26211;SDS011;13951;49.516;6.094;2024-01-06T09:13:01;4.50;;;2.17;;
26211;SDS011;13951;49.516;6.094;2024-01-06T09:15:35;4.33;;;2.47;;
26211;SDS011;13951;49.516;6.094;2024-01-06T09:18:08;3.33;;;2.43;;
26211;SDS011;13951;49.516;6.094;2024-01-06T09:20:42;3.63;;;2.30;;
26211;SDS011;13951;49.516;6.094;2024-01-06T09:23:16;3.77;;;2.57;;
26211;SDS011;13951;49.516;6.094;2024-01-06T09:25:49;2.90;;;2.60;;
26211;SDS011;13951;49.516;6.094;2024-01-06T09:28:24;3.00;;;2.70;;
26211;SDS011;13951;49.516;6.094;2024-01-06T09:30:57;5.40;;;2.83;;
26211;SDS011;13951;49.516;6.094;2024-01-06T09:33:30;3.07;;;2.67;;
26211;SDS011;13951;49.516;6.094;2024-01-06T09:36:06;3.97;;;2.60;;
26211;SDS011;13951;49.516;6.094;2024-01-06T09:38:44;3.77;;;2.70;;
26211;SDS011;13951;49.516;6.094;2024-01-06T09:41:17;3.73;;;2.97;;
26211;SDS011;13951;49.516;6.094;2024-01-06T09:43:50;3.87;;;2.90;;
26211;SDS011;13951;49.516;6.094;2024-01-06T09:46:24;3.50;;;2.80;;
26211;SDS011;13951;49.516;6.094;2024-01-06T09:48:58;3.20;;;2.67;;
26211;SDS011;13951;49.516;6.094;2024-01-06T09:51:33;3.53;;;3.10;;
26211;SDS011;13951;49.516;6.094;2024-01-06T09:54:12;4.27;;;3.47;;
26211;SDS011;13951;49.516;6.094;2024-01-06T09:56:46;4.67;;;2.73;;
26211;SDS011;13951;49.516;6.094;2024-01-06T09:59:21;5.43;;;3.20;;
26211;SDS011;13951;49.516;6.094;2024-01-06T10:01:55;3.70;;;3.00;;
26211;SDS011;13951;49.516;6.094;2024-01-06T10:04:29;3.80;;;3.07;;
26211;SDS011;13951;49.516;6.094;2024-01-06T10:07:03;5.17;;;3.03;;
26211;SDS011;13951;49.516;6.094;2024-01-06T10:09:36;3.13;;;2.83;;
26211;SDS011;13951;49.516;6.094;2024-01-06T10:12:09;4.63;;;2.97;;
26211;SDS011;13951;49.516;6.094;2024-01-06T10:14:44;4.20;;;3.30;;
26211;SDS011;13951;49.516;6.094;2024-01-06T10:17:17;3.47;;;2.73;;
26211;SDS011;13951;49.516;6.094;2024-01-06T10:19:51;4.33;;;2.27;;
26211;SDS011;13951;49.516;6.094;2024-01-06T10:22:26;2.47;;;1.80;;
26211;SDS011;13951;49.516;6.094;2024-01-06T10:25:00;2.00;;;1.80;;
26211;SDS011;13951;49.516;6.094;2024-01-06T10:27:38;2.27;;;2.07;;
26211;SDS011;13951;49.516;6.094;2024-01-06T10:30:12;2.33;;;2.00;;
26211;SDS011;13951;49.516;6.094;2024-01-06T10:32:47;2.70;;;2.43;;
26211;SDS011;13951;49.516;6.094;2024-01-06T10:35:23;2.00;;;1.80;;
26211;SDS011;13951;49.516;6.094;2024-01-06T10:37:58;2.53;;;2.00;;
26211;SDS011;13951;49.516;6.094;2024-01-06T10:40:31;2.13;;;1.87;;
26211;SDS011;13951;49.516;6.094;2024-01-06T10:43:05;1.80;;;1.70;;
26211;SDS011;13951;49.516;6.094;2024-01-06T10:45:38;2.10;;;1.90;;
26211;SDS011;13951;49.516;6.094;2024-01-06T10:48:12;2.13;;;1.80;;
26211;SDS011;13951;49.516;6.094;2024-01-06T10:50:49;1.50;;;1.40;;
26211;SDS011;13951;49.516;6.094;2024-01-06T10:53:24;3.03;;;1.40;;
26211;SDS011;13951;49.516;6.094;2024-01-06T10:55:59;1.40;;;1.27;;
26211;SDS011;13951;49.516;6.094;2024-01-06T10:58:35;3.37;;;1.40;;
26211;SDS011;13951;49.516;6.094;2024-01-06T11:01:15;1.70;;;1.47;;
26211;SDS011;13951;49.516;6.094;2024-01-06T11:04:02;1.27;;;1.17;;
26211;SDS011;13951;49.516;6.094;2024-01-06T11:06:37;1.50;;;1.40;;
26211;SDS011;13951;49.516;6.094;2024-01-06T11:09:13;1.77;;;1.37;;
26211;SDS011;13951;49.516;6.094;2024-01-06T11:11:50;1.20;;;1.10;;
26211;SDS011;13951;49.516;6.094;2024-01-06T11:14:27;1.50;;;1.27;;
26211;SDS011;13951;49.516;6.094;2024-01-06T11:17:01;1.87;;;1.37;;
26211;SDS011;13951;49.516;6.094;2024-01-06T11:22:25;1.57;;;1.20;;
26211;SDS011;13951;49.516;6.094;2024-01-06T11:25:12;1.50;;;1.30;;
26211;SDS011;13951;49.516;6.094;2024-01-06T11:27:48;1.70;;;1.20;;
26211;SDS011;13951;49.516;6.094;2024-01-06T11:30:24;1.90;;;1.30;;
26211;SDS011;13951;49.516;6.094;2024-01-06T11:32:58;1.20;;;1.10;;
26211;SDS011;13951;49.516;6.094;2024-01-06T11:35:33;1.83;;;1.17;;
26211;SDS011;13951;49.516;6.094;2024-01-06T11:38:10;0.97;;;0.90;;
26211;SDS011;13951;49.516;6.094;2024-01-06T11:40:45;1.20;;;1.10;;
26211;SDS011;13951;49.516;6.094;2024-01-06T11:43:18;1.40;;;1.30;;
26211;SDS011;13951;49.516;6.094;2024-01-06T11:46:00;0.90;;;0.90;;
26211;SDS011;13951;49.516;6.094;2024-01-06T11:48:37;1.13;;;1.03;;
26211;SDS011;13951;49.516;6.094;2024-01-06T11:51:11;1.43;;;1.10;;
26211;SDS011;13951;49.516;6.094;2024-01-06T11:53:45;3.13;;;1.70;;
26211;SDS011;13951;49.516;6.094;2024-01-06T11:56:19;1.10;;;1.00;;
26211;SDS011;13951;49.516;6.094;2024-01-06T11:58:55;2.20;;;1.47;;
26211;SDS011;13951;49.516;6.094;2024-01-06T12:01:35;1.27;;;1.17;;
26211;SDS011;13951;49.516;6.094;2024-01-06T12:04:15;1.37;;;1.20;;
26211;SDS011;13951;49.516;6.094;2024-01-06T12:06:50;1.43;;;1.33;;
26211;SDS011;13951;49.516;6.094;2024-01-06T12:09:23;1.60;;;1.50;;
26211;SDS011;13951;49.516;6.094;2024-01-06T12:12:05;1.50;;;1.40;;
26211;SDS011;13951;49.516;6.094;2024-01-06T12:14:39;2.00;;;1.80;;
26211;SDS011;13951;49.516;6.094;2024-01-06T12:17:15;1.90;;;1.77;;
26211;SDS011;13951;49.516;6.094;2024-01-06T12:19:51;2.00;;;1.80;;
26211;SDS011;13951;49.516;6.094;2024-01-06T12:22:25;2.57;;;1.80;;
26211;SDS011;13951;49.516;6.094;2024-01-06T12:24:59;2.00;;;1.60;;
26211;SDS011;13951;49.516;6.094;2024-01-06T12:27:32;1.90;;;1.67;;
26211;SDS011;13951;49.516;6.094;2024-01-06T12:30:05;2.10;;;1.90;;
26211;SDS011;13951;49.516;6.094;2024-01-06T12:32:49;2.20;;;1.50;;
26211;SDS011;13951;49.516;6.094;2024-01-06T12:35:25;1.70;;;1.60;;
26211;SDS011;13951;49.516;6.094;2024-01-06T12:37:58;1.70;;;1.50;;
26211;SDS011;13951;49.516;6.094;2024-01-06T12:40:33;3.57;;;1.83;;
26211;SDS011;13951;49.516;6.094;2024-01-06T12:43:08;2.00;;;1.90;;
26211;SDS011;13951;49.516;6.094;2024-01-06T12:45:41;2.23;;;1.83;;
26211;SDS011;13951;49.516;6.094;2024-01-06T12:48:14;2.70;;;2.30;;
26211;SDS011;13951;49.516;6.094;2024-01-06T12:50:48;2.60;;;2.20;;
26211;SDS011;13951;49.516;6.094;2024-01-06T12:53:21;2.30;;;2.10;;
26211;SDS011;13951;49.516;6.094;2024-01-06T12:55:54;1.97;;;1.77;;
26211;SDS011;13951;49.516;6.094;2024-01-06T12:58:27;4.07;;;2.00;;
26211;SDS011;13951;49.516;6.094;2024-01-06T13:01:00;2.90;;;1.70;;
26211;SDS011;13951;49.516;6.094;2024-01-06T13:03:35;2.97;;;2.00;;
26211;SDS011;13951;49.516;6.094;2024-01-06T13:06:09;4.40;;;2.87;;
26211;SDS011;13951;49.516;6.094;2024-01-06T13:08:43;4.63;;;3.30;;
26211;SDS011;13951;49.516;6.094;2024-01-06T13:11:16;5.00;;;3.40;;
26211;SDS011;13951;49.516;6.094;2024-01-06T13:13:50;4.80;;;3.47;;
26211;SDS011;13951;49.516;6.094;2024-01-06T13:16:24;5.40;;;3.80;;
26211;SDS011;13951;49.516;6.094;2024-01-06T13:18:57;6.40;;;3.90;;
26211;SDS011;13951;49.516;6.094;2024-01-06T13:21:30;6.07;;;3.77;;
26211;SDS011;13951;49.516;6.094;2024-01-06T13:24:04;4.57;;;2.90;;
26211;SDS011;13951;49.516;6.094;2024-01-06T13:26:38;3.70;;;3.00;;
26211;SDS011;13951;49.516;6.094;2024-01-06T13:29:12;4.20;;;3.20;;
26211;SDS011;13951;49.516;6.094;2024-01-06T13:31:45;4.17;;;2.97;;
26211;SDS011;13951;49.516;6.094;2024-01-06T13:34:19;4.47;;;3.10;;
26211;SDS011;13951;49.516;6.094;2024-01-06T13:36:52;3.20;;;2.77;;
26211;SDS011;13951;49.516;6.094;2024-01-06T13:39:28;3.37;;;2.80;;
26211;SDS011;13951;49.516;6.094;2024-01-06T13:42:03;4.97;;;2.90;;
26211;SDS011;13951;49.516;6.094;2024-01-06T13:44:37;4.37;;;2.93;;
26211;SDS011;13951;49.516;6.094;2024-01-06T13:47:10;3.93;;;3.17;;
26211;SDS011;13951;49.516;6.094;2024-01-06T13:49:43;4.37;;;3.00;;
26211;SDS011;13951;49.516;6.094;2024-01-06T13:52:16;3.63;;;3.07;;
26211;SDS011;13951;49.516;6.094;2024-01-06T13:54:50;4.07;;;3.00;;
26211;SDS011;13951;49.516;6.094;2024-01-06T13:57:26;3.90;;;2.80;;
26211;SDS011;13951;49.516;6.094;2024-01-06T13:59:59;3.33;;;2.73;;
26211;SDS011;13951;49.516;6.094;2024-01-06T14:02:42;3.93;;;2.70;;
26211;SDS011;13951;49.516;6.094;2024-01-06T14:05:15;3.10;;;2.43;;
26211;SDS011;13951;49.516;6.094;2024-01-06T14:07:49;3.53;;;3.00;;
26211;SDS011;13951;49.516;6.094;2024-01-06T14:10:23;4.53;;;2.60;;
26211;SDS011;13951;49.516;6.094;2024-01-06T14:12:57;4.27;;;2.90;;
26211;SDS011;13951;49.516;6.094;2024-01-06T14:15:30;3.63;;;2.87;;
26211;SDS011;13951;49.516;6.094;2024-01-06T14:18:06;5.03;;;3.50;;
26211;SDS011;13951;49.516;6.094;2024-01-06T14:20:45;5.70;;;3.07;;
26211;SDS011;13951;49.516;6.094;2024-01-06T14:23:18;4.30;;;2.90;;
26211;SDS011;13951;49.516;6.094;2024-01-06T14:25:52;3.77;;;2.87;;
26211;SDS011;13951;49.516;6.094;2024-01-06T14:28:26;5.03;;;3.20;;
26211;SDS011;13951;49.516;6.094;2024-01-06T14:30:59;4.67;;;3.07;;
26211;SDS011;13951;49.516;6.094;2024-01-06T14:33:33;5.40;;;3.20;;
26211;SDS011;13951;49.516;6.094;2024-01-06T14:36:07;3.00;;;2.43;;
26211;SDS011;13951;49.516;6.094;2024-01-06T14:38:41;3.77;;;2.73;;
26211;SDS011;13951;49.516;6.094;2024-01-06T14:41:14;4.67;;;3.17;;
26211;SDS011;13951;49.516;6.094;2024-01-06T14:43:47;5.10;;;3.13;;
26211;SDS011;13951;49.516;6.094;2024-01-06T14:46:21;5.03;;;3.17;;
26211;SDS011;13951;49.516;6.094;2024-01-06T14:48:54;4.77;;;3.13;;
26211;SDS011;13951;49.516;6.094;2024-01-06T14:51:27;4.10;;;2.90;;
26211;SDS011;13951;49.516;6.094;2024-01-06T14:54:01;4.93;;;3.30;;
26211;SDS011;13951;49.516;6.094;2024-01-06T14:56:37;3.80;;;2.67;;
26211;SDS011;13951;49.516;6.094;2024-01-06T14:59:11;3.47;;;2.60;;
26211;SDS011;13951;49.516;6.094;2024-01-06T15:01:44;3.77;;;2.87;;
26211;SDS011;13951;49.516;6.094;2024-01-06T15:04:17;11.57;;;7.40;;
26211;SDS011;13951;49.516;6.094;2024-01-06T15:06:54;5.07;;;3.30;;
26211;SDS011;13951;49.516;6.094;2024-01-06T15:09:28;10.10;;;4.80;;
26211;SDS011;13951;49.516;6.094;2024-01-06T15:12:01;4.00;;;2.30;;
26211;SDS011;13951;49.516;6.094;2024-01-06T15:14:34;2.50;;;2.10;;
26211;SDS011;13951;49.516;6.094;2024-01-06T15:17:08;3.57;;;2.10;;
26211;SDS011;13951;49.516;6.094;2024-01-06T15:19:42;3.80;;;2.17;;
26211;SDS011;13951;49.516;6.094;2024-01-06T15:22:15;3.00;;;2.20;;
26211;SDS011;13951;49.516;6.094;2024-01-06T15:24:49;2.80;;;2.20;;
26211;SDS011;13951;49.516;6.094;2024-01-06T15:27:29;4.00;;;2.40;;
26211;SDS011;13951;49.516;6.094;2024-01-06T15:30:03;4.67;;;2.60;;
26211;SDS011;13951;49.516;6.094;2024-01-06T15:32:41;6.60;;;3.87;;